createdAt,value
2022-11-30T00:01:11.114Z,88.94
2022-11-30T00:03:38.393Z,89.45
2022-11-30T00:06:06.345Z,90.57
2022-11-30T00:08:33.671Z,91.24
2022-11-30T00:11:08.965Z,90.86
2022-11-30T00:13:36.401Z,90.89
2022-11-30T00:16:03.818Z,91.70
2022-11-30T00:18:31.199Z,91.06
2022-11-30T00:21:00.259Z,91.45
2022-11-30T00:23:31.013Z,92.08
2022-11-30T00:26:02.504Z,94.00
2022-11-30T00:28:30.687Z,91.69
2022-11-30T00:30:58.272Z,90.55
2022-11-30T00:33:25.175Z,89.98
2022-11-30T00:36:00.187Z,89.16
2022-11-30T00:38:28.761Z,89.01
2022-11-30T00:40:55.950Z,88.86
2022-11-30T00:43:24.516Z,88.83
2022-11-30T00:45:51.475Z,88.65
2022-11-30T00:48:18.527Z,89.38
2022-11-30T00:50:45.783Z,88.96
2022-11-30T00:53:12.824Z,88.91
2022-11-30T00:55:39.636Z,88.74
2022-11-30T00:58:06.435Z,88.55
2022-11-30T01:00:35.267Z,88.57
2022-11-30T01:03:02.398Z,88.62
2022-11-30T01:05:29.707Z,88.46
2022-11-30T01:08:01.019Z,88.51
2022-11-30T01:10:27.992Z,89.06
2022-11-30T01:12:54.883Z,89.06
2022-11-30T01:15:22.483Z,88.64
2022-11-30T01:17:50.976Z,88.63
2022-11-30T01:20:18.526Z,88.40
2022-11-30T01:22:45.586Z,88.10
2022-11-30T01:25:12.584Z,88.77
2022-11-30T01:27:40.866Z,88.28
2022-11-30T01:30:09.600Z,88.95
2022-11-30T01:32:38.025Z,88.38
2022-11-30T01:35:07.080Z,88.83
2022-11-30T01:37:34.465Z,88.51
2022-11-30T01:40:02.125Z,88.38
2022-11-30T01:42:29.395Z,88.60
2022-11-30T01:44:58.146Z,88.55
2022-11-30T01:47:30.595Z,88.28
2022-11-30T01:50:07.894Z,88.75
2022-11-30T01:52:40.051Z,88.36
2022-11-30T01:55:18.784Z,88.46
2022-11-30T01:57:50.210Z,88.89
2022-11-30T02:00:19.598Z,88.93
2022-11-30T02:03:01.620Z,88.37
2022-11-30T02:05:31.260Z,88.83
2022-11-30T02:07:58.486Z,88.47
2022-11-30T02:10:30.115Z,88.24
2022-11-30T02:13:30.029Z,88.32
2022-11-30T02:16:12.633Z,88.25
2022-11-30T02:18:53.037Z,88.50
2022-11-30T02:21:32.301Z,88.92
2022-11-30T02:24:50.365Z,88.33
2022-11-30T02:27:44.373Z,88.65
2022-11-30T02:30:18.725Z,88.18
2022-11-30T02:32:54.618Z,88.43
2022-11-30T02:35:27.438Z,89.04
2022-11-30T02:37:57.254Z,88.82
2022-11-30T02:40:24.527Z,88.63
2022-11-30T02:42:55.201Z,89.28
2022-11-30T02:45:38.001Z,89.16
2022-11-30T02:48:10.377Z,89.17
2022-11-30T02:50:45.675Z,88.68
2022-11-30T02:53:12.881Z,88.91
2022-11-30T02:55:40.070Z,88.80
2022-11-30T02:58:07.081Z,89.16
2022-11-30T03:00:35.601Z,89.09
2022-11-30T03:03:02.556Z,88.81
2022-11-30T03:05:29.738Z,88.35
2022-11-30T03:07:56.631Z,88.46
2022-11-30T03:10:23.745Z,88.89
2022-11-30T03:12:50.587Z,88.45
2022-11-30T03:15:18.115Z,88.86
2022-11-30T03:17:46.486Z,88.38
2022-11-30T03:20:13.366Z,89.16
2022-11-30T03:22:40.365Z,88.36
2022-11-30T03:25:08.752Z,88.65
2022-11-30T03:27:35.766Z,89.19
2022-11-30T03:30:02.791Z,88.83
2022-11-30T03:32:29.704Z,88.53
2022-11-30T03:34:57.897Z,89.16
2022-11-30T03:37:24.692Z,88.94
2022-11-30T03:39:57.781Z,88.93
2022-11-30T03:42:25.187Z,88.97
2022-11-30T03:44:52.378Z,89.22
2022-11-30T03:47:19.397Z,89.24
2022-11-30T03:49:46.120Z,88.53
2022-11-30T03:52:14.963Z,88.83
2022-11-30T03:54:41.797Z,88.21
2022-11-30T03:57:09.019Z,88.96
2022-11-30T03:59:35.884Z,88.36
2022-11-30T04:02:03.447Z,88.65
2022-11-30T04:04:30.323Z,88.82
2022-11-30T04:06:57.219Z,88.72
2022-11-30T04:09:25.353Z,88.39
2022-11-30T04:11:52.415Z,88.91
2022-11-30T04:14:19.288Z,89.00
2022-11-30T04:16:46.087Z,88.75
2022-11-30T04:19:12.860Z,88.25
2022-11-30T04:21:39.927Z,88.30
2022-11-30T04:24:08.577Z,88.65
2022-11-30T04:26:36.776Z,88.51
2022-11-30T04:29:04.795Z,88.99
2022-11-30T04:31:31.790Z,88.08
2022-11-30T04:33:58.857Z,88.46
2022-11-30T04:36:25.652Z,88.70
2022-11-30T04:38:52.536Z,88.46
2022-11-30T04:41:19.460Z,88.19
2022-11-30T04:43:47.841Z,88.68
2022-11-30T04:46:14.783Z,88.53
2022-11-30T04:48:42.184Z,88.49
2022-11-30T04:51:09.187Z,88.67
2022-11-30T04:53:38.118Z,88.74
2022-11-30T04:56:06.505Z,88.99
2022-11-30T04:58:33.794Z,88.60
2022-11-30T05:01:02.068Z,88.88
2022-11-30T05:03:28.863Z,89.04
2022-11-30T05:05:55.805Z,88.79
2022-11-30T05:08:22.953Z,88.85
2022-11-30T05:10:53.369Z,88.46
2022-11-30T05:13:21.215Z,88.93
2022-11-30T05:15:48.103Z,89.27
2022-11-30T05:18:16.545Z,89.02
2022-11-30T05:20:48.092Z,88.27
2022-11-30T05:23:15.208Z,88.77
2022-11-30T05:25:42.302Z,88.25
2022-11-30T05:28:09.496Z,89.18
2022-11-30T05:30:37.551Z,88.67
2022-11-30T05:33:04.656Z,88.73
2022-11-30T05:35:33.073Z,89.30
2022-11-30T05:38:00.014Z,89.32
2022-11-30T05:40:26.901Z,88.90
2022-11-30T05:42:56.134Z,88.84
2022-11-30T05:45:23.126Z,89.57
2022-11-30T05:47:50.743Z,89.80
2022-11-30T05:50:18.724Z,89.43
2022-11-30T05:52:47.020Z,89.76
2022-11-30T05:55:13.951Z,89.75
2022-11-30T05:57:41.384Z,90.21
2022-11-30T06:00:10.253Z,89.85
2022-11-30T06:02:40.007Z,89.53
2022-11-30T06:05:08.367Z,89.13
2022-11-30T06:07:35.262Z,89.42
2022-11-30T06:10:04.250Z,89.51
2022-11-30T06:12:31.848Z,89.18
2022-11-30T06:14:58.688Z,89.30
2022-11-30T06:17:25.615Z,89.02
2022-11-30T06:19:52.520Z,89.26
2022-11-30T06:22:19.296Z,89.23
2022-11-30T06:24:46.419Z,90.41
2022-11-30T06:27:15.277Z,94.46
2022-11-30T06:29:42.466Z,93.90
2022-11-30T06:32:09.564Z,93.97
2022-11-30T06:34:36.439Z,91.99
2022-11-30T06:37:03.369Z,94.13
2022-11-30T06:39:58.000Z,94.45
2022-11-30T06:42:18.961Z,88.68
2022-11-30T06:44:45.990Z,87.74
2022-11-30T06:47:13.011Z,87.99
2022-11-30T06:49:39.904Z,87.98
2022-11-30T06:52:07.058Z,90.74
2022-11-30T06:54:34.186Z,87.59
2022-11-30T06:57:00.981Z,87.10
2022-11-30T06:59:29.420Z,87.39
2022-11-30T07:01:56.321Z,87.63
2022-11-30T07:04:23.556Z,87.52
2022-11-30T07:06:50.546Z,88.49
2022-11-30T07:09:17.398Z,87.96
2022-11-30T07:11:44.367Z,89.03
2022-11-30T07:14:11.191Z,88.61
2022-11-30T07:16:39.908Z,89.00
2022-11-30T07:19:07.293Z,89.11
2022-11-30T07:21:34.098Z,89.02
2022-11-30T07:24:01.971Z,88.08
2022-11-30T07:26:29.195Z,87.84
2022-11-30T07:28:56.195Z,88.22
2022-11-30T07:31:25.964Z,88.69
2022-11-30T07:33:56.038Z,89.69
2022-11-30T07:36:25.646Z,89.26
2022-11-30T07:38:52.701Z,89.23
2022-11-30T07:41:21.422Z,88.84
2022-11-30T07:43:48.508Z,89.26
2022-11-30T07:46:16.915Z,89.35
2022-11-30T07:48:45.843Z,88.63
2022-11-30T07:51:16.900Z,89.01
2022-11-30T07:53:45.054Z,88.94
2022-11-30T07:56:15.849Z,89.15
2022-11-30T07:58:43.610Z,88.87
2022-11-30T08:01:15.279Z,89.13
2022-11-30T08:03:42.882Z,88.98
2022-11-30T08:06:12.311Z,88.60
2022-11-30T08:08:43.330Z,88.68
2022-11-30T08:11:13.681Z,88.20
2022-11-30T08:13:40.959Z,88.59
2022-11-30T08:16:11.970Z,88.04
2022-11-30T08:18:40.373Z,87.58
2022-11-30T08:21:10.565Z,87.79
2022-11-30T08:23:41.932Z,87.71
2022-11-30T08:26:12.675Z,87.29
2022-11-30T08:28:40.359Z,87.21
2022-11-30T08:31:12.134Z,87.27
2022-11-30T08:33:40.157Z,86.74
2022-11-30T08:36:09.656Z,86.84
2022-11-30T08:38:38.024Z,86.40
2022-11-30T08:41:07.764Z,86.72
2022-11-30T08:43:35.232Z,86.40
2022-11-30T08:46:11.383Z,85.79
2022-11-30T08:48:49.844Z,85.82
2022-11-30T08:51:19.017Z,85.52
2022-11-30T08:53:47.072Z,85.81
2022-11-30T08:56:18.088Z,85.28
2022-11-30T08:58:51.538Z,85.12
2022-11-30T09:01:21.326Z,85.60
2022-11-30T09:03:52.402Z,85.52
2022-11-30T09:06:22.994Z,85.68
2022-11-30T09:08:52.363Z,86.12
2022-11-30T09:11:23.600Z,85.92
2022-11-30T09:13:53.566Z,85.69
2022-11-30T09:16:21.717Z,85.99
2022-11-30T09:18:50.677Z,85.73
2022-11-30T09:21:20.901Z,85.43
2022-11-30T09:23:49.280Z,84.88
2022-11-30T09:26:20.726Z,85.47
2022-11-30T09:28:48.664Z,85.15
2022-11-30T09:31:17.981Z,85.32
2022-11-30T09:33:45.712Z,84.88
2022-11-30T09:36:15.307Z,85.06
2022-11-30T09:38:42.306Z,85.02
2022-11-30T09:41:43.579Z,85.31
2022-11-30T09:44:23.219Z,84.13
2022-11-30T09:47:05.926Z,84.09
2022-11-30T09:49:37.461Z,83.05
2022-11-30T09:52:12.523Z,84.32
2022-11-30T09:54:43.590Z,83.94
2022-11-30T09:57:30.125Z,83.80
2022-11-30T10:00:00.221Z,84.70
2022-11-30T10:02:31.704Z,84.91
2022-11-30T10:05:00.791Z,84.56
2022-11-30T10:07:52.554Z,83.65
2022-11-30T10:10:33.750Z,83.39
2022-11-30T10:13:25.546Z,84.06
2022-11-30T10:16:13.355Z,83.98
2022-11-30T10:18:54.050Z,83.84
2022-11-30T10:21:43.055Z,83.73
2022-11-30T10:24:29.384Z,83.03
2022-11-30T10:26:58.453Z,83.88
2022-11-30T10:29:33.837Z,83.37
2022-11-30T10:32:13.974Z,83.90
2022-11-30T10:34:46.511Z,83.95
2022-11-30T10:37:22.229Z,83.57
2022-11-30T10:40:00.817Z,83.40
2022-11-30T10:42:37.742Z,83.43
2022-11-30T10:45:16.045Z,82.75
2022-11-30T10:47:50.215Z,82.96
2022-11-30T10:50:18.093Z,82.78
2022-11-30T10:52:51.138Z,82.48
2022-11-30T10:55:22.492Z,83.20
2022-11-30T10:57:57.620Z,83.41
2022-11-30T11:00:26.192Z,84.02
2022-11-30T11:02:53.097Z,83.72
2022-11-30T11:05:24.165Z,82.67
2022-11-30T11:08:04.501Z,81.71
2022-11-30T11:10:42.727Z,81.88
2022-11-30T11:13:17.060Z,82.02
2022-11-30T11:15:58.670Z,81.91
2022-11-30T11:18:28.966Z,82.54
2022-11-30T11:21:06.075Z,83.19
2022-11-30T11:23:37.707Z,84.19
2022-11-30T11:26:06.932Z,83.74
2022-11-30T11:28:43.143Z,83.78
2022-11-30T11:31:34.771Z,83.16
2022-11-30T11:34:03.561Z,83.28
2022-11-30T11:36:34.923Z,83.00
2022-11-30T11:39:02.295Z,82.48
2022-11-30T11:41:33.466Z,82.47
2022-11-30T11:44:05.923Z,82.78
2022-11-30T11:46:38.742Z,82.69
2022-11-30T11:49:18.108Z,82.97
2022-11-30T11:51:45.217Z,83.28
2022-11-30T11:54:25.761Z,82.81
2022-11-30T11:56:56.674Z,82.05
2022-11-30T11:59:40.433Z,82.47
2022-11-30T12:02:34.917Z,82.69
2022-11-30T12:05:12.757Z,83.10
2022-11-30T12:07:50.419Z,82.84
2022-11-30T12:13:20.851Z,82.74
2022-11-30T12:16:12.719Z,82.84
2022-11-30T12:18:52.223Z,82.26
2022-11-30T12:21:41.429Z,83.00
2022-11-30T12:24:42.137Z,82.81
2022-11-30T12:27:27.400Z,82.64
2022-11-30T12:30:06.382Z,82.64
2022-11-30T12:33:03.275Z,82.58
2022-11-30T12:35:45.400Z,81.42
2022-11-30T12:38:30.174Z,81.89
2022-11-30T12:41:14.441Z,81.72
2022-11-30T12:43:55.165Z,82.13
2022-11-30T12:46:34.305Z,81.65
2022-11-30T12:49:25.528Z,82.04
2022-11-30T12:52:11.783Z,82.48
2022-11-30T12:54:52.609Z,82.72
2022-11-30T12:57:25.976Z,81.24
2022-11-30T13:00:05.909Z,81.40
2022-11-30T13:03:03.930Z,81.23
2022-11-30T13:05:37.878Z,81.54
2022-11-30T13:08:20.000Z,81.29
2022-11-30T13:10:54.357Z,80.53
2022-11-30T13:13:26.750Z,80.66
2022-11-30T13:15:55.114Z,81.42
2022-11-30T13:18:24.543Z,80.90
2022-11-30T13:21:03.283Z,81.19
2022-11-30T13:23:41.691Z,81.39
2022-11-30T13:26:23.356Z,81.30
2022-11-30T13:29:10.753Z,81.16
2022-11-30T13:31:45.959Z,80.86
2022-11-30T13:34:25.559Z,81.26
2022-11-30T13:37:03.737Z,80.99
2022-11-30T13:39:48.948Z,81.10
2022-11-30T13:42:37.361Z,81.53
2022-11-30T13:45:32.081Z,81.73
2022-11-30T13:48:16.033Z,81.66
2022-11-30T13:50:47.965Z,82.20
2022-11-30T13:53:26.238Z,82.29
2022-11-30T13:56:33.778Z,81.55
2022-11-30T13:59:35.501Z,81.23
2022-11-30T14:02:50.943Z,80.71
2022-11-30T14:05:36.967Z,80.82
2022-11-30T14:08:32.251Z,80.26
2022-11-30T14:11:46.443Z,80.50
2022-11-30T14:14:46.856Z,80.39
2022-11-30T14:17:21.588Z,81.33
2022-11-30T14:19:52.786Z,80.94
2022-11-30T14:22:20.086Z,81.69
2022-11-30T14:24:49.995Z,81.83
2022-11-30T14:27:25.159Z,81.64
2022-11-30T14:29:59.368Z,82.40
2022-11-30T14:32:35.073Z,82.34
2022-11-30T14:35:11.127Z,82.56
2022-11-30T14:37:45.337Z,82.51
2022-11-30T14:40:20.817Z,82.80
2022-11-30T14:42:53.281Z,83.68
2022-11-30T14:45:25.079Z,83.89
2022-11-30T14:48:04.602Z,84.50
2022-11-30T14:50:32.608Z,84.70
2022-11-30T14:53:17.786Z,84.85
2022-11-30T14:55:52.780Z,84.98
2022-11-30T14:58:37.588Z,84.91
2022-11-30T15:01:18.480Z,85.09
2022-11-30T15:03:48.843Z,84.78
2022-11-30T15:06:19.584Z,85.31
2022-11-30T15:08:52.553Z,84.69
2022-11-30T15:11:21.521Z,84.30
2022-11-30T15:13:53.303Z,84.61
2022-11-30T15:16:25.763Z,84.81
2022-11-30T15:18:55.322Z,85.25
2022-11-30T15:21:25.355Z,85.45
2022-11-30T15:23:54.718Z,85.30
2022-11-30T15:26:30.164Z,85.46
2022-11-30T15:29:06.643Z,86.11
2022-11-30T15:31:39.905Z,85.54
2022-11-30T15:34:17.894Z,86.02
2022-11-30T15:36:46.270Z,85.42
2022-11-30T15:39:21.418Z,85.24
2022-11-30T15:41:54.532Z,84.97
2022-11-30T15:44:39.189Z,85.08
2022-11-30T15:47:23.036Z,85.23
2022-11-30T15:49:54.132Z,85.24
2022-11-30T15:52:27.764Z,85.32
2022-11-30T15:54:57.138Z,85.60
2022-11-30T15:57:27.096Z,85.04
2022-11-30T16:00:21.556Z,85.64
2022-11-30T16:02:48.869Z,85.90
2022-11-30T16:05:26.577Z,85.48
2022-11-30T16:07:57.280Z,85.20
2022-11-30T16:10:28.890Z,84.87
2022-11-30T16:12:56.279Z,84.76
2022-11-30T16:15:28.202Z,84.99
2022-11-30T16:18:00.175Z,85.23
2022-11-30T16:20:28.275Z,85.25
2022-11-30T16:22:55.392Z,85.03
2022-11-30T16:25:26.163Z,85.20
2022-11-30T16:27:53.582Z,85.59
2022-11-30T16:30:24.790Z,85.17
2022-11-30T16:32:51.893Z,85.19
2022-11-30T16:35:24.231Z,85.00
2022-11-30T16:37:52.513Z,84.70
2022-11-30T16:40:19.660Z,83.62
2022-11-30T16:42:48.924Z,84.14
2022-11-30T16:45:20.245Z,83.62
2022-11-30T16:47:49.147Z,83.79
2022-11-30T16:50:16.734Z,82.34
2022-11-30T16:52:44.058Z,81.61
2022-11-30T16:55:14.744Z,82.22
2022-11-30T16:57:41.696Z,82.44
2022-11-30T17:00:13.652Z,82.28
2022-11-30T17:02:48.325Z,82.46
2022-11-30T17:05:16.838Z,81.43
2022-11-30T17:07:43.782Z,81.40
2022-11-30T17:10:12.085Z,81.78
2022-11-30T17:12:39.380Z,79.63
2022-11-30T17:15:11.586Z,80.35
2022-11-30T17:17:38.437Z,80.20
2022-11-30T17:20:07.435Z,80.63
2022-11-30T17:22:35.665Z,80.11
2022-11-30T17:25:02.864Z,80.81
2022-11-30T17:27:30.017Z,80.54
2022-11-30T17:29:56.944Z,80.29
2022-11-30T17:32:24.095Z,80.84
2022-11-30T17:34:50.988Z,80.64
2022-11-30T17:37:17.992Z,81.91
2022-11-30T17:39:46.185Z,80.99
2022-11-30T17:42:13.053Z,82.09
2022-11-30T17:44:39.884Z,82.15
2022-11-30T17:47:06.947Z,80.82
2022-11-30T17:49:33.864Z,81.31
2022-11-30T17:52:00.928Z,81.49
2022-11-30T17:54:27.775Z,81.42
2022-11-30T17:56:56.006Z,82.00
2022-11-30T17:59:22.990Z,81.35
2022-11-30T18:01:50.227Z,81.43
2022-11-30T18:04:17.461Z,82.36
2022-11-30T18:06:44.567Z,82.62
2022-11-30T18:09:11.464Z,82.63
2022-11-30T18:11:38.649Z,82.38
2022-11-30T18:14:06.929Z,82.38
2022-11-30T18:16:36.237Z,82.29
2022-11-30T18:19:06.252Z,82.75
2022-11-30T18:21:33.443Z,82.94
2022-11-30T18:24:00.202Z,82.24
2022-11-30T18:26:27.750Z,82.08
2022-11-30T18:28:57.868Z,82.07
2022-11-30T18:31:27.932Z,81.32
2022-11-30T18:33:55.959Z,81.03
2022-11-30T18:36:23.227Z,81.62
2022-11-30T18:38:50.070Z,82.33
2022-11-30T18:41:17.400Z,82.97
2022-11-30T18:43:44.518Z,83.03
2022-11-30T18:46:13.237Z,82.64
2022-11-30T18:48:42.469Z,82.66
2022-11-30T18:51:11.763Z,83.15
2022-11-30T18:53:38.896Z,82.56
2022-11-30T18:56:11.747Z,84.10
2022-11-30T18:58:38.642Z,82.51
2022-11-30T19:01:12.101Z,83.13
2022-11-30T19:03:40.822Z,82.87
2022-11-30T19:06:10.259Z,83.33
2022-11-30T19:08:39.736Z,83.57
2022-11-30T19:11:09.212Z,83.42
2022-11-30T19:13:36.997Z,83.32
2022-11-30T19:16:08.541Z,83.21
2022-11-30T19:18:36.287Z,82.71
2022-11-30T19:21:09.283Z,83.17
2022-11-30T19:23:36.888Z,83.02
2022-11-30T19:26:05.179Z,83.25
2022-11-30T19:28:34.232Z,83.69
2022-11-30T19:31:07.425Z,82.94
2022-11-30T19:33:35.425Z,82.52
2022-11-30T19:36:05.071Z,82.59
2022-11-30T19:38:34.163Z,82.73
2022-11-30T19:41:05.479Z,83.56
2022-11-30T19:43:32.630Z,83.27
2022-11-30T19:46:05.033Z,83.20
2022-11-30T19:48:32.661Z,83.07
2022-11-30T19:50:59.841Z,82.93
2022-11-30T19:53:28.217Z,82.31
2022-11-30T19:55:56.477Z,82.79
2022-11-30T19:58:23.735Z,82.41
2022-11-30T20:00:50.517Z,82.99
2022-11-30T20:03:17.415Z,86.23
2022-11-30T20:05:49.041Z,81.90
2022-11-30T20:08:16.342Z,79.58
2022-11-30T20:10:43.173Z,81.21
2022-11-30T20:13:11.733Z,77.40
2022-11-30T20:15:39.157Z,77.07
2022-11-30T20:18:07.044Z,78.11
2022-11-30T20:20:35.033Z,80.24
2022-11-30T20:23:05.810Z,81.04
2022-11-30T20:25:33.898Z,82.05
2022-11-30T20:28:05.998Z,83.43
2022-11-30T20:30:38.017Z,81.75
2022-11-30T20:33:04.835Z,80.75
2022-11-30T20:35:31.703Z,82.39
2022-11-30T20:37:58.543Z,81.88
2022-11-30T20:40:25.369Z,83.57
2022-11-30T20:42:52.220Z,86.44
2022-11-30T20:45:19.659Z,80.72
2022-11-30T20:47:47.897Z,80.47
2022-11-30T20:50:15.010Z,79.95
2022-11-30T20:52:41.861Z,76.62
2022-11-30T20:55:09.571Z,78.00
2022-11-30T20:57:36.437Z,80.30
2022-11-30T21:00:08.787Z,80.55
2022-11-30T21:02:38.673Z,78.29
2022-11-30T21:05:08.002Z,74.12
2022-11-30T21:07:35.960Z,76.13
2022-11-30T21:10:03.224Z,72.36
2022-11-30T21:12:30.462Z,75.75
2022-11-30T21:14:58.029Z,75.48
2022-11-30T21:17:24.965Z,78.02
2022-11-30T21:19:51.916Z,74.01
2022-11-30T21:22:20.152Z,73.36
2022-11-30T21:24:49.716Z,75.85
2022-11-30T21:27:16.925Z,76.38
2022-11-30T21:29:43.886Z,77.61
2022-11-30T21:32:10.939Z,78.66
2022-11-30T21:34:37.908Z,76.96
2022-11-30T21:37:05.044Z,79.12
2022-11-30T21:39:33.271Z,75.10
2022-11-30T21:42:00.149Z,76.73
2022-11-30T21:44:27.164Z,75.95
2022-11-30T21:46:54.312Z,77.76
2022-11-30T21:49:21.412Z,83.12
2022-11-30T21:51:48.349Z,77.15
2022-11-30T21:54:15.235Z,78.82
2022-11-30T21:56:43.563Z,76.91
2022-11-30T21:59:13.929Z,78.25
2022-11-30T22:01:43.759Z,78.14
2022-11-30T22:04:13.355Z,78.98
2022-11-30T22:06:41.867Z,76.74
2022-11-30T22:09:16.450Z,77.29
2022-11-30T22:11:45.708Z,78.83
2022-11-30T22:14:16.276Z,77.76
2022-11-30T22:16:44.196Z,79.16
2022-11-30T22:19:11.309Z,77.81
2022-11-30T22:21:38.264Z,78.51
2022-11-30T22:24:10.532Z,78.66
2022-11-30T22:26:39.766Z,78.84
2022-11-30T22:29:13.155Z,78.14
2022-11-30T22:31:42.804Z,78.70
2022-11-30T22:34:10.228Z,78.54
2022-11-30T22:36:40.139Z,78.86
2022-11-30T22:39:11.513Z,77.29
2022-11-30T22:41:41.374Z,76.95
2022-11-30T22:44:13.307Z,77.34
2022-11-30T22:46:40.875Z,77.38
2022-11-30T22:49:14.664Z,77.81
2022-11-30T22:51:45.889Z,76.69
2022-11-30T22:54:12.747Z,76.22
2022-11-30T22:56:41.539Z,75.84
2022-11-30T22:59:13.309Z,76.91
2022-11-30T23:01:44.456Z,76.63
2022-11-30T23:04:14.950Z,77.12
2022-11-30T23:06:43.387Z,78.03
2022-11-30T23:09:13.756Z,75.12
2022-11-30T23:11:41.237Z,76.98
2022-11-30T23:14:08.297Z,75.01
2022-11-30T23:16:37.530Z,77.31
2022-11-30T23:19:06.480Z,74.19
2022-11-30T23:21:40.965Z,73.74
2022-11-30T23:24:14.707Z,75.98
2022-11-30T23:26:42.358Z,74.71
2022-11-30T23:29:13.055Z,73.25
2022-11-30T23:31:44.261Z,74.39
2022-11-30T23:34:14.476Z,74.16
2022-11-30T23:36:41.873Z,73.66
2022-11-30T23:39:11.461Z,74.48
2022-11-30T23:41:39.264Z,76.94
2022-11-30T23:44:07.156Z,72.30
2022-11-30T23:46:34.694Z,73.05
2022-11-30T23:49:03.758Z,70.57
2022-11-30T23:51:30.864Z,75.54
2022-11-30T23:53:57.857Z,70.48
2022-11-30T23:56:25.007Z,71.58
2022-11-30T23:58:52.564Z,73.01
